Time;durP1;ratioP1;P1;durP2;ratioP2;P2;SDS_P1;SDS_P2;PMS_P1;PMS_P2;Temp;Humidity;BMP_temperature;BMP_pressure;BME280_temperature;BME280_humidity;BME280_pressure;Samples;Min_cycle;Max_cycle;Signal;HPM_P1;HPM_P2
2021/06/07 00:01:03;;;;;;;1.98;0.43;;;;;;;;;;5041621;28;20045;-54
2021/06/07 00:03:29;;;;;;;1.48;0.50;;;;;;;;;;5042971;28;20429;-54
2021/06/07 00:05:55;;;;;;;2.53;0.45;;;;;;;;;;5043759;28;20480;-53
2021/06/07 00:08:21;;;;;;;2.67;0.40;;;;;;;;;;5043208;28;20102;-57
2021/06/07 00:10:47;;;;;;;3.88;0.40;;;;;;;;;;5040878;28;20040;-57
2021/06/07 00:13:13;;;;;;;1.20;0.40;;;;;;;;;;5044734;28;20036;-59
2021/06/07 00:15:39;;;;;;;2.25;0.47;;;;;;;;;;5044166;28;20235;-54
2021/06/07 00:18:05;;;;;;;1.92;0.50;;;;;;;;;;5043717;28;20064;-58
2021/06/07 00:20:34;;;;;;;3.08;0.40;;;;;;;;;;5043230;28;20060;-56
2021/06/07 00:23:00;;;;;;;2.38;0.85;;;;;;;;;;5041875;28;20060;-56
2021/06/07 00:25:27;;;;;;;2.20;0.57;;;;;;;;;;5043042;28;20191;-58
2021/06/07 00:27:53;;;;;;;6.05;0.50;;;;;;;;;;5041229;28;20038;-58
2021/06/07 00:30:18;;;;;;;4.43;0.60;;;;;;;;;;5040611;28;20129;-58
2021/06/07 00:32:44;;;;;;;3.30;0.50;;;;;;;;;;5039944;28;20032;-57
2021/06/07 00:35:15;;;;;;;3.58;0.70;;;;;;;;;;5038824;28;20060;-55
2021/06/07 00:37:41;;;;;;;3.28;0.60;;;;;;;;;;5039340;28;20048;-55
2021/06/07 00:40:07;;;;;;;6.03;1.00;;;;;;;;;;5033914;28;20769;-55
2021/06/07 00:42:33;;;;;;;4.20;0.82;;;;;;;;;;5042914;28;20052;-57
2021/06/07 00:44:59;;;;;;;5.65;0.70;;;;;;;;;;5039480;28;20040;-54
2021/06/07 00:47:25;;;;;;;4.38;0.75;;;;;;;;;;5039344;28;20060;-54
2021/06/07 00:49:51;;;;;;;3.20;0.70;;;;;;;;;;5036626;28;20053;-54
2021/06/07 00:52:16;;;;;;;3.20;0.70;;;;;;;;;;5039409;28;20044;-55
2021/06/07 00:54:42;;;;;;;1.95;0.60;;;;;;;;;;5035201;28;20095;-51
2021/06/07 00:57:08;;;;;;;2.65;0.70;;;;;;;;;;5039437;28;20056;-54
2021/06/07 00:59:34;;;;;;;5.40;0.60;;;;;;;;;;5039848;28;20049;-56
2021/06/07 01:01:59;;;;;;;2.70;0.60;;;;;;;;;;5040645;28;20449;-56
2021/06/07 01:04:25;;;;;;;4.28;0.60;;;;;;;;;;5041745;28;20033;-52
2021/06/07 01:06:51;;;;;;;2.80;0.70;;;;;;;;;;5044815;28;20607;-56
2021/06/07 01:09:17;;;;;;;2.47;0.60;;;;;;;;;;5043435;28;20127;-55
2021/06/07 01:11:43;;;;;;;5.63;0.60;;;;;;;;;;5046640;28;20051;-56
2021/06/07 01:14:08;;;;;;;2.60;0.60;;;;;;;;;;5052158;28;20041;-55
2021/06/07 01:16:34;;;;;;;4.07;0.55;;;;;;;;;;5046737;28;20043;-55
2021/06/07 01:19:00;;;;;;;8.02;0.70;;;;;;;;;;5046443;28;20086;-52
2021/06/07 01:21:26;;;;;;;2.75;0.70;;;;;;;;;;5047391;28;20052;-56
2021/06/07 01:23:53;;;;;;;2.70;0.63;;;;;;;;;;5045637;28;20048;-56
2021/06/07 01:26:20;;;;;;;5.32;0.88;;;;;;;;;;5046933;28;20047;-56
2021/06/07 01:28:47;;;;;;;4.45;0.77;;;;;;;;;;5047823;28;20051;-55
2021/06/07 01:31:13;;;;;;;4.53;0.80;;;;;;;;;;5046149;28;20037;-55
2021/06/07 01:33:44;;;;;;;7.28;1.00;;;;;;;;;;5042414;28;20121;-56
2021/06/07 01:36:10;;;;;;;9.95;1.40;;;;;;;;;;5043098;28;20397;-55
2021/06/07 01:38:36;;;;;;;5.07;0.90;;;;;;;;;;5044606;28;20040;-53
2021/06/07 01:41:04;;;;;;;4.97;0.90;;;;;;;;;;5043018;28;20056;-55
2021/06/07 01:43:31;;;;;;;3.15;0.75;;;;;;;;;;5043013;28;20037;-52
2021/06/07 01:45:56;;;;;;;3.10;0.70;;;;;;;;;;5043367;28;20087;-54
2021/06/07 01:48:23;;;;;;;4.63;0.80;;;;;;;;;;5041432;28;20033;-56
2021/06/07 01:50:51;;;;;;;6.28;1.00;;;;;;;;;;5043507;28;20075;-53
2021/06/07 01:53:17;;;;;;;6.32;1.00;;;;;;;;;;5042532;28;20052;-52
2021/06/07 01:55:44;;;;;;;2.83;0.77;;;;;;;;;;5043084;28;20037;-50
2021/06/07 01:58:10;;;;;;;2.25;0.80;;;;;;;;;;5043357;28;20543;-51
2021/06/07 02:00:38;;;;;;;6.93;0.90;;;;;;;;;;5041233;28;20048;-53
2021/06/07 02:03:05;;;;;;;2.17;0.70;;;;;;;;;;5043834;28;20037;-53
2021/06/07 02:05:32;;;;;;;3.17;0.63;;;;;;;;;;5042339;28;20158;-53
2021/06/07 02:07:59;;;;;;;3.42;0.77;;;;;;;;;;5042944;28;20832;-51
2021/06/07 02:10:26;;;;;;;3.85;0.70;;;;;;;;;;5040632;28;20114;-53
2021/06/07 02:12:53;;;;;;;2.70;0.60;;;;;;;;;;5043063;28;20032;-53
2021/06/07 02:15:19;;;;;;;2.85;0.70;;;;;;;;;;5042626;28;20045;-52
2021/06/07 02:17:45;;;;;;;1.95;0.60;;;;;;;;;;5041167;28;20037;-54
2021/06/07 02:20:15;;;;;;;3.72;0.77;;;;;;;;;;5043422;28;20052;-51
2021/06/07 02:22:42;;;;;;;2.25;0.65;;;;;;;;;;5040213;28;20485;-54
2021/06/07 02:25:09;;;;;;;2.83;0.60;;;;;;;;;;5042708;28;20041;-54
2021/06/07 02:27:34;;;;;;;2.78;0.60;;;;;;;;;;5040807;28;20618;-52
2021/06/07 02:30:02;;;;;;;2.75;0.68;;;;;;;;;;5041324;28;20324;-54
2021/06/07 02:32:28;;;;;;;2.05;0.60;;;;;;;;;;5042295;28;20132;-53
2021/06/07 02:34:54;;;;;;;2.15;0.57;;;;;;;;;;5042595;28;20067;-52
2021/06/07 02:37:20;;;;;;;1.67;0.50;;;;;;;;;;5040765;28;20040;-54
2021/06/07 02:39:46;;;;;;;4.43;0.85;;;;;;;;;;5042264;28;20057;-54
2021/06/07 02:42:12;;;;;;;1.98;0.60;;;;;;;;;;5040295;28;20033;-55
2021/06/07 02:44:38;;;;;;;3.58;0.60;;;;;;;;;;5041120;28;20048;-54
2021/06/07 02:47:04;;;;;;;2.65;0.70;;;;;;;;;;5042649;28;20095;-52
2021/06/07 02:49:30;;;;;;;3.15;0.88;;;;;;;;;;5043358;28;20045;-55
2021/06/07 02:51:56;;;;;;;5.60;1.00;;;;;;;;;;5044080;28;20055;-54
2021/06/07 02:54:22;;;;;;;3.00;0.70;;;;;;;;;;5042826;28;20029;-55
2021/06/07 02:56:48;;;;;;;2.30;0.77;;;;;;;;;;5042536;28;20045;-52
2021/06/07 02:59:14;;;;;;;3.65;0.90;;;;;;;;;;5041491;28;20033;-52
2021/06/07 03:01:40;;;;;;;3.28;0.75;;;;;;;;;;5040683;28;20087;-55
2021/06/07 03:04:05;;;;;;;2.55;0.60;;;;;;;;;;5042565;28;20052;-54
2021/06/07 03:06:31;;;;;;;4.63;0.70;;;;;;;;;;5041187;28;20044;-53
2021/06/07 03:08:57;;;;;;;2.53;0.70;;;;;;;;;;5047945;28;20082;-57
2021/06/07 03:11:23;;;;;;;2.38;0.60;;;;;;;;;;5040752;28;20064;-54
2021/06/07 03:13:49;;;;;;;4.13;0.90;;;;;;;;;;5041846;28;20045;-54
2021/06/07 03:16:15;;;;;;;4.20;0.98;;;;;;;;;;5041996;28;20189;-55
2021/06/07 03:18:42;;;;;;;2.58;0.77;;;;;;;;;;5042572;28;20036;-53
2021/06/07 03:21:08;;;;;;;2.40;0.60;;;;;;;;;;5043047;28;20049;-52
2021/06/07 03:23:35;;;;;;;2.40;0.60;;;;;;;;;;5044669;28;20036;-51
2021/06/07 03:26:01;;;;;;;4.20;0.70;;;;;;;;;;5044877;28;20128;-56
2021/06/07 03:28:27;;;;;;;2.20;0.60;;;;;;;;;;5042538;28;20037;-54
2021/06/07 03:30:54;;;;;;;2.33;0.60;;;;;;;;;;5042278;28;20047;-54
2021/06/07 03:33:20;;;;;;;2.70;0.70;;;;;;;;;;5042727;28;20045;-55
2021/06/07 03:35:47;;;;;;;3.70;0.70;;;;;;;;;;5042935;28;20051;-53
2021/06/07 03:38:15;;;;;;;2.22;0.73;;;;;;;;;;5045295;28;20531;-54
2021/06/07 03:40:41;;;;;;;2.83;0.68;;;;;;;;;;5043260;28;20052;-53
2021/06/07 03:43:07;;;;;;;3.72;0.60;;;;;;;;;;5035750;28;21971;-55
2021/06/07 03:45:33;;;;;;;2.50;0.65;;;;;;;;;;5039775;28;20041;-54
2021/06/07 03:47:59;;;;;;;2.30;0.60;;;;;;;;;;5043175;28;20118;-54
2021/06/07 03:50:26;;;;;;;2.30;0.70;;;;;;;;;;5040095;28;20127;-53
2021/06/07 03:52:52;;;;;;;2.65;0.75;;;;;;;;;;5040251;28;20041;-52
2021/06/07 03:55:19;;;;;;;2.85;0.57;;;;;;;;;;5040053;28;20358;-55
2021/06/07 03:57:45;;;;;;;1.58;0.60;;;;;;;;;;5042176;28;20118;-55
2021/06/07 04:00:12;;;;;;;2.33;0.60;;;;;;;;;;5039542;28;20037;-54
2021/06/07 04:02:38;;;;;;;2.90;0.70;;;;;;;;;;5038808;28;20414;-54
2021/06/07 04:05:05;;;;;;;4.72;1.08;;;;;;;;;;5040768;28;20045;-55
2021/06/07 04:07:31;;;;;;;3.83;1.02;;;;;;;;;;5040144;28;20127;-55
2021/06/07 04:09:57;;;;;;;1.98;0.60;;;;;;;;;;5055978;28;20037;-53
2021/06/07 04:12:22;;;;;;;2.08;0.70;;;;;;;;;;5039514;28;20500;-53
2021/06/07 04:14:48;;;;;;;3.03;0.60;;;;;;;;;;5039288;28;20041;-52
2021/06/07 04:17:14;;;;;;;1.98;0.60;;;;;;;;;;5040174;28;20041;-53
2021/06/07 04:19:40;;;;;;;1.77;0.60;;;;;;;;;;5040261;28;20055;-52
2021/06/07 04:22:06;;;;;;;1.98;0.60;;;;;;;;;;5042379;28;20386;-53
2021/06/07 04:24:32;;;;;;;2.97;0.68;;;;;;;;;;5039807;28;20051;-52
2021/06/07 04:26:58;;;;;;;2.25;0.65;;;;;;;;;;5039009;28;20158;-50
2021/06/07 04:29:24;;;;;;;2.15;0.60;;;;;;;;;;5039729;28;20047;-52
2021/06/07 04:31:50;;;;;;;3.00;0.80;;;;;;;;;;5041914;28;20490;-53
2021/06/07 04:34:15;;;;;;;2.40;0.77;;;;;;;;;;5040588;28;20063;-54
2021/06/07 04:36:41;;;;;;;3.28;0.70;;;;;;;;;;5038823;28;20061;-54
2021/06/07 04:39:07;;;;;;;2.03;0.60;;;;;;;;;;5036535;28;20044;-54
2021/06/07 04:41:33;;;;;;;3.00;0.75;;;;;;;;;;5048483;28;20057;-54
2021/06/07 04:44:00;;;;;;;2.35;0.60;;;;;;;;;;5041218;28;20090;-55
2021/06/07 04:46:27;;;;;;;2.97;0.70;;;;;;;;;;5038637;28;20033;-54
2021/06/07 04:48:52;;;;;;;2.33;0.63;;;;;;;;;;5044133;28;20057;-54
2021/06/07 04:51:18;;;;;;;3.10;0.77;;;;;;;;;;5044208;28;20162;-55
2021/06/07 04:53:44;;;;;;;1.67;0.55;;;;;;;;;;5044612;28;21076;-55
2021/06/07 04:56:10;;;;;;;2.42;0.63;;;;;;;;;;5043739;28;20097;-54
2021/06/07 04:58:36;;;;;;;1.85;0.50;;;;;;;;;;5043406;28;20040;-52
2021/06/07 05:01:09;;;;;;;3.25;0.60;;;;;;;;;;5043842;28;20064;-53
2021/06/07 05:03:35;;;;;;;2.80;0.55;;;;;;;;;;5043950;28;20062;-51
2021/06/07 05:06:01;;;;;;;2.70;0.60;;;;;;;;;;5043514;28;20044;-53
2021/06/07 05:08:28;;;;;;;1.80;0.50;;;;;;;;;;5043804;28;20036;-53
2021/06/07 05:10:55;;;;;;;1.45;0.60;;;;;;;;;;5044664;28;20467;-54
2021/06/07 05:13:21;;;;;;;3.05;0.60;;;;;;;;;;5042597;28;20161;-53
2021/06/07 05:15:47;;;;;;;2.15;0.60;;;;;;;;;;5043748;28;20545;-54
2021/06/07 05:18:13;;;;;;;2.60;0.60;;;;;;;;;;5057668;28;20123;-52
2021/06/07 05:20:40;;;;;;;2.97;0.90;;;;;;;;;;5044101;28;20049;-52
2021/06/07 05:23:06;;;;;;;2.20;0.63;;;;;;;;;;5044751;28;20770;-55
2021/06/07 05:25:32;;;;;;;2.42;0.60;;;;;;;;;;5041901;28;20037;-52
2021/06/07 05:27:59;;;;;;;2.20;0.80;;;;;;;;;;5043949;28;20067;-55
2021/06/07 05:30:26;;;;;;;2.35;0.80;;;;;;;;;;5043652;28;20041;-54
2021/06/07 05:32:52;;;;;;;2.47;0.75;;;;;;;;;;5046186;28;20048;-54
2021/06/07 05:35:18;;;;;;;2.35;0.70;;;;;;;;;;5042664;28;20053;-53
2021/06/07 05:37:44;;;;;;;2.35;0.70;;;;;;;;;;5044415;28;20099;-53
2021/06/07 05:40:11;;;;;;;2.30;0.60;;;;;;;;;;5043174;28;20060;-54
2021/06/07 05:42:37;;;;;;;4.00;0.90;;;;;;;;;;5044910;28;20059;-53
2021/06/07 05:45:04;;;;;;;3.22;0.80;;;;;;;;;;5044982;28;20037;-52
2021/06/07 05:47:30;;;;;;;3.28;1.00;;;;;;;;;;5044499;28;20051;-53
2021/06/07 05:49:56;;;;;;;2.50;0.80;;;;;;;;;;5044409;28;20398;-51
2021/06/07 05:52:22;;;;;;;2.65;0.88;;;;;;;;;;5043160;28;20099;-53
2021/06/07 05:54:47;;;;;;;2.67;0.80;;;;;;;;;;5045308;28;20059;-53
2021/06/07 05:57:13;;;;;;;3.00;0.70;;;;;;;;;;5042069;28;20040;-52
2021/06/07 05:59:39;;;;;;;2.35;0.80;;;;;;;;;;5043464;28;20450;-52
2021/06/07 06:02:08;;;;;;;1.98;0.65;;;;;;;;;;5042984;28;20052;-55
2021/06/07 06:04:34;;;;;;;3.00;0.60;;;;;;;;;;5043653;28;20037;-53
2021/06/07 06:07:00;;;;;;;3.35;0.70;;;;;;;;;;5043240;28;20032;-52
2021/06/07 06:09:27;;;;;;;2.60;0.68;;;;;;;;;;5040776;28;20058;-51
2021/06/07 06:11:52;;;;;;;1.20;0.40;;;;;;;;;;5044380;28;20052;-54
2021/06/07 06:14:18;;;;;;;2.63;0.60;;;;;;;;;;5043623;28;20470;-53
2021/06/07 06:16:44;;;;;;;2.35;0.70;;;;;;;;;;5043724;28;20064;-51
2021/06/07 06:19:11;;;;;;;2.55;0.70;;;;;;;;;;5044560;28;20099;-53
2021/06/07 06:21:39;;;;;;;2.13;0.60;;;;;;;;;;5044164;28;20045;-54
2021/06/07 06:24:06;;;;;;;2.28;0.60;;;;;;;;;;5043659;28;20047;-53
2021/06/07 06:26:32;;;;;;;3.72;0.68;;;;;;;;;;5040594;28;22814;-51
2021/06/07 06:28:58;;;;;;;1.92;0.60;;;;;;;;;;5056790;28;20045;-53
2021/06/07 06:31:23;;;;;;;2.00;0.65;;;;;;;;;;5042152;28;20078;-53
2021/06/07 06:33:49;;;;;;;2.17;0.60;;;;;;;;;;5043279;28;21060;-53
2021/06/07 06:36:15;;;;;;;1.58;0.68;;;;;;;;;;5043175;28;20506;-55
2021/06/07 06:38:41;;;;;;;4.85;1.02;;;;;;;;;;5042429;28;20033;-54
2021/06/07 06:41:06;;;;;;;2.70;0.60;;;;;;;;;;5042473;28;20056;-53
2021/06/07 06:43:33;;;;;;;2.17;0.68;;;;;;;;;;5042178;28;20677;-53
2021/06/07 06:45:59;;;;;;;1.80;0.60;;;;;;;;;;5042340;28;20047;-53
2021/06/07 06:48:25;;;;;;;2.83;0.60;;;;;;;;;;5042698;28;20048;-53
2021/06/07 06:50:51;;;;;;;1.45;0.50;;;;;;;;;;5040712;28;20670;-53
2021/06/07 06:53:17;;;;;;;2.15;0.63;;;;;;;;;;5041191;28;20048;-51
2021/06/07 06:55:47;;;;;;;2.55;0.65;;;;;;;;;;5041727;28;20052;-54
2021/06/07 06:58:13;;;;;;;1.92;0.50;;;;;;;;;;5041133;28;20124;-54
2021/06/07 07:00:39;;;;;;;2.28;0.63;;;;;;;;;;5041590;28;20045;-53
2021/06/07 07:03:09;;;;;;;2.30;0.60;;;;;;;;;;5044413;28;20064;-54
2021/06/07 07:05:35;;;;;;;1.63;0.60;;;;;;;;;;5041816;28;20041;-52
2021/06/07 07:08:01;;;;;;;1.75;0.50;;;;;;;;;;5042587;28;20091;-53
2021/06/07 07:10:27;;;;;;;1.48;0.50;;;;;;;;;;5039863;28;20045;-53
2021/06/07 07:12:52;;;;;;;1.48;0.50;;;;;;;;;;5044145;28;20041;-51
2021/06/07 07:15:18;;;;;;;1.88;0.52;;;;;;;;;;5041688;28;20697;-54
2021/06/07 07:17:45;;;;;;;1.98;0.50;;;;;;;;;;5045150;28;20045;-52
2021/06/07 07:20:11;;;;;;;1.30;0.47;;;;;;;;;;5045211;28;20057;-52
2021/06/07 07:22:37;;;;;;;2.35;0.75;;;;;;;;;;5047012;28;20582;-52
2021/06/07 07:25:04;;;;;;;2.83;0.60;;;;;;;;;;5051314;28;20062;-51
2021/06/07 07:27:30;;;;;;;1.85;0.50;;;;;;;;;;5062516;28;20040;-50
2021/06/07 07:29:57;;;;;;;2.03;0.60;;;;;;;;;;5059813;28;20041;-51
2021/06/07 07:32:25;;;;;;;2.90;0.60;;;;;;;;;;5058044;28;20113;-53
2021/06/07 07:34:52;;;;;;;2.25;0.60;;;;;;;;;;5046869;28;20068;-53
2021/06/07 07:37:18;;;;;;;1.65;0.50;;;;;;;;;;5045266;28;20498;-53
2021/06/07 07:39:44;;;;;;;1.95;0.60;;;;;;;;;;5044005;28;20036;-53
2021/06/07 07:42:10;;;;;;;2.05;0.65;;;;;;;;;;5044657;28;20060;-53
2021/06/07 07:44:36;;;;;;;2.63;0.55;;;;;;;;;;5043249;28;20111;-51
2021/06/07 07:47:05;;;;;;;4.47;1.20;;;;;;;;;;5042089;28;20033;-54
2021/06/07 07:49:31;;;;;;;1.75;0.50;;;;;;;;;;5042800;28;20048;-54
2021/06/07 07:51:57;;;;;;;2.80;0.70;;;;;;;;;;5034509;28;20552;-54
2021/06/07 07:54:22;;;;;;;2.67;0.75;;;;;;;;;;5041761;28;20094;-54
2021/06/07 07:56:48;;;;;;;2.28;0.60;;;;;;;;;;5043998;28;20037;-53
2021/06/07 07:59:14;;;;;;;2.15;0.60;;;;;;;;;;5042670;28;20120;-53
2021/06/07 08:01:41;;;;;;;1.50;0.45;;;;;;;;;;5042915;28;20293;-54
2021/06/07 08:04:07;;;;;;;3.13;0.90;;;;;;;;;;5059508;28;20885;-54
2021/06/07 08:06:33;;;;;;;1.92;0.55;;;;;;;;;;5045028;28;20037;-53
2021/06/07 08:08:59;;;;;;;2.60;0.68;;;;;;;;;;5043971;28;20449;-52
2021/06/07 08:11:24;;;;;;;2.22;0.85;;;;;;;;;;5042375;28;20045;-55
2021/06/07 08:13:50;;;;;;;1.88;0.63;;;;;;;;;;5044138;28;20032;-54
2021/06/07 08:16:17;;;;;;;1.95;0.50;;;;;;;;;;5043900;28;20036;-55
2021/06/07 08:18:42;;;;;;;2.38;0.70;;;;;;;;;;5046155;28;20029;-53
2021/06/07 08:21:08;;;;;;;3.15;0.90;;;;;;;;;;5044507;28;20044;-55
2021/06/07 08:23:34;;;;;;;2.38;0.60;;;;;;;;;;5044245;28;20120;-54
2021/06/07 08:26:00;;;;;;;2.10;0.60;;;;;;;;;;5042791;28;20047;-52
2021/06/07 08:28:26;;;;;;;3.30;0.80;;;;;;;;;;5043829;28;20110;-53
2021/06/07 08:30:52;;;;;;;2.55;0.77;;;;;;;;;;5042725;28;20040;-54
2021/06/07 08:33:18;;;;;;;2.45;0.70;;;;;;;;;;5042235;28;20055;-54
2021/06/07 08:35:43;;;;;;;2.03;0.60;;;;;;;;;;5055272;28;20063;-52
2021/06/07 08:38:09;;;;;;;4.13;0.80;;;;;;;;;;5043291;28;20397;-55
2021/06/07 08:40:35;;;;;;;3.45;0.70;;;;;;;;;;5041780;28;20421;-54
2021/06/07 08:43:01;;;;;;;3.97;0.60;;;;;;;;;;5041123;28;20108;-52
2021/06/07 08:45:27;;;;;;;2.40;0.60;;;;;;;;;;5041737;28;20041;-55
2021/06/07 08:47:55;;;;;;;2.17;0.60;;;;;;;;;;5040229;28;20038;-55
2021/06/07 08:50:23;;;;;;;2.00;0.60;;;;;;;;;;5017925;28;20505;-54
2021/06/07 08:52:49;;;;;;;2.50;0.80;;;;;;;;;;5041588;28;20098;-54
2021/06/07 08:55:16;;;;;;;2.45;0.63;;;;;;;;;;5040164;28;20033;-54
2021/06/07 08:57:43;;;;;;;2.63;0.80;;;;;;;;;;5036605;28;20091;-54
2021/06/07 09:00:10;;;;;;;3.28;0.98;;;;;;;;;;5041620;28;20055;-55
2021/06/07 09:02:36;;;;;;;2.05;0.68;;;;;;;;;;5039424;28;20054;-54
2021/06/07 09:05:03;;;;;;;2.63;0.85;;;;;;;;;;5040214;28;20041;-54
2021/06/07 09:07:29;;;;;;;2.60;0.82;;;;;;;;;;5041724;28;20033;-55
2021/06/07 09:10:11;;;;;;;3.03;1.00;;;;;;;;;;5040284;28;20060;-54
2021/06/07 09:12:40;;;;;;;3.00;0.90;;;;;;;;;;5039812;28;20049;-53
2021/06/07 09:15:06;;;;;;;2.50;0.90;;;;;;;;;;5037465;28;20068;-54
2021/06/07 09:17:31;;;;;;;2.88;1.13;;;;;;;;;;5040326;28;20505;-54
2021/06/07 09:20:18;;;;;;;8.23;1.25;;;;;;;;;;5040688;28;20110;-53
2021/06/07 09:23:07;;;;;;;2.72;0.95;;;;;;;;;;5040082;28;20049;-51
2021/06/07 09:25:36;;;;;;;3.30;0.95;;;;;;;;;;5034206;28;20054;-54
2021/06/07 09:28:04;;;;;;;3.20;1.20;;;;;;;;;;5041453;28;20068;-51
2021/06/07 09:30:32;;;;;;;2.95;1.10;;;;;;;;;;5039304;28;20052;-53
2021/06/07 09:33:16;;;;;;;3.78;1.30;;;;;;;;;;5042841;28;20047;-54
2021/06/07 09:35:43;;;;;;;3.92;1.40;;;;;;;;;;5043320;28;20048;-53
2021/06/07 09:38:09;;;;;;;3.35;1.40;;;;;;;;;;5044472;28;20053;-54
2021/06/07 09:40:34;;;;;;;3.70;1.30;;;;;;;;;;5034702;28;20057;-53
2021/06/07 09:43:03;;;;;;;4.93;1.80;;;;;;;;;;5057355;28;20179;-52
2021/06/07 09:45:39;;;;;;;3.70;1.60;;;;;;;;;;5043738;28;20394;-54
2021/06/07 09:48:10;;;;;;;3.25;1.42;;;;;;;;;;5044098;28;20059;-51
2021/06/07 09:50:35;;;;;;;4.38;1.50;;;;;;;;;;5041724;28;20041;-54
2021/06/07 09:53:01;;;;;;;3.97;1.42;;;;;;;;;;5043112;28;20041;-53
2021/06/07 09:55:27;;;;;;;5.60;1.30;;;;;;;;;;5042112;28;20733;-51
2021/06/07 09:57:55;;;;;;;3.20;1.10;;;;;;;;;;5043998;28;20488;-54
2021/06/07 10:00:40;;;;;;;5.70;1.17;;;;;;;;;;5058011;28;20041;-54
2021/06/07 10:03:24;;;;;;;3.15;1.10;;;;;;;;;;5044731;28;20072;-53
2021/06/07 10:05:54;;;;;;;3.90;1.38;;;;;;;;;;5042284;28;20049;-53
2021/06/07 10:08:24;;;;;;;3.05;1.10;;;;;;;;;;5043329;28;20413;-54
2021/06/07 10:10:50;;;;;;;3.28;0.90;;;;;;;;;;5042306;28;20095;-53
2021/06/07 10:13:16;;;;;;;3.55;0.90;;;;;;;;;;5044112;28;20041;-54
2021/06/07 10:15:43;;;;;;;2.65;0.75;;;;;;;;;;5043121;28;20033;-51
2021/06/07 10:18:13;;;;;;;3.30;0.80;;;;;;;;;;5042616;28;20064;-51
2021/06/07 10:20:49;;;;;;;2.97;0.80;;;;;;;;;;5043675;28;20049;-54
2021/06/07 10:23:17;;;;;;;2.70;0.95;;;;;;;;;;5044970;28;20569;-52
2021/06/07 10:25:43;;;;;;;2.97;1.00;;;;;;;;;;5044354;28;20041;-54
2021/06/07 10:28:09;;;;;;;3.20;0.80;;;;;;;;;;5044728;28;20041;-53
2021/06/07 10:30:45;;;;;;;2.33;0.80;;;;;;;;;;5043788;28;20033;-54
2021/06/07 10:33:28;;;;;;;5.13;1.00;;;;;;;;;;5044767;28;20041;-52
2021/06/07 10:35:54;;;;;;;2.72;0.90;;;;;;;;;;5043013;28;20057;-51
2021/06/07 10:38:30;;;;;;;3.95;0.80;;;;;;;;;;5045266;28;20131;-54
2021/06/07 10:41:14;;;;;;;3.58;1.08;;;;;;;;;;5041312;28;20049;-52
2021/06/07 10:43:44;;;;;;;2.70;0.80;;;;;;;;;;5041259;28;20103;-52
2021/06/07 10:46:20;;;;;;;3.25;0.93;;;;;;;;;;5042921;28;20090;-52
2021/06/07 10:48:50;;;;;;;5.03;1.13;;;;;;;;;;5042940;28;20654;-53
2021/06/07 10:51:16;;;;;;;3.00;1.10;;;;;;;;;;5041310;28;20302;-53
2021/06/07 10:53:41;;;;;;;2.85;1.00;;;;;;;;;;5040943;28;20047;-53
2021/06/07 10:56:11;;;;;;;3.10;1.00;;;;;;;;;;5042813;28;20056;-53
2021/06/07 10:58:57;;;;;;;4.10;1.10;;;;;;;;;;5039814;28;20120;-53
2021/06/07 11:01:23;;;;;;;3.53;1.00;;;;;;;;;;5042171;28;20056;-53
2021/06/07 11:03:56;;;;;;;4.57;1.20;;;;;;;;;;5043121;28;20052;-52
2021/06/07 11:06:22;;;;;;;2.80;1.00;;;;;;;;;;5040763;28;20075;-51
2021/06/07 11:09:07;;;;;;;3.47;1.13;;;;;;;;;;5044004;28;20045;-52
2021/06/07 11:11:43;;;;;;;4.72;1.25;;;;;;;;;;5045960;28;20064;-52
2021/06/07 11:14:09;;;;;;;4.15;1.02;;;;;;;;;;5044479;28;20472;-53
2021/06/07 11:16:42;;;;;;;3.65;1.20;;;;;;;;;;5043405;28;20064;-54
2021/06/07 11:19:11;;;;;;;3.70;1.30;;;;;;;;;;5040769;28;20044;-55
2021/06/07 11:21:43;;;;;;;5.00;1.20;;;;;;;;;;5051294;28;20056;-54
2021/06/07 11:24:28;;;;;;;4.97;1.10;;;;;;;;;;5043760;28;20025;-52
2021/06/07 11:26:54;;;;;;;2.97;1.00;;;;;;;;;;5042302;28;20172;-52
2021/06/07 11:29:20;;;;;;;3.13;1.65;;;;;;;;;;5032893;28;20048;-53
2021/06/07 11:31:51;;;;;;;4.65;1.10;;;;;;;;;;5039012;28;20045;-52
2021/06/07 11:34:21;;;;;;;4.60;1.30;;;;;;;;;;5041918;28;20078;-51
2021/06/07 11:36:49;;;;;;;3.42;1.10;;;;;;;;;;5041030;28;20043;-54
2021/06/07 11:39:17;;;;;;;3.25;0.90;;;;;;;;;;5042585;28;20296;-55
2021/06/07 11:41:45;;;;;;;2.85;1.00;;;;;;;;;;5041161;28;20048;-53
2021/06/07 11:44:12;;;;;;;2.45;0.70;;;;;;;;;;5041686;28;20072;-54
2021/06/07 11:46:38;;;;;;;2.80;0.70;;;;;;;;;;5040560;28;20435;-53
2021/06/07 11:49:05;;;;;;;2.50;0.77;;;;;;;;;;5042977;28;20044;-53
2021/06/07 11:51:34;;;;;;;4.00;0.80;;;;;;;;;;5041264;28;20052;-51
2021/06/07 11:54:00;;;;;;;2.65;0.60;;;;;;;;;;5041823;28;20520;-54
2021/06/07 11:56:26;;;;;;;3.25;0.60;;;;;;;;;;5055072;28;20143;-54
2021/06/07 11:58:53;;;;;;;2.50;0.70;;;;;;;;;;5042113;28;20164;-52
2021/06/07 12:01:19;;;;;;;2.40;0.60;;;;;;;;;;5041088;28;20067;-53
2021/06/07 12:03:45;;;;;;;3.00;0.85;;;;;;;;;;5040927;28;20040;-54
2021/06/07 12:06:11;;;;;;;3.83;0.80;;;;;;;;;;5041006;28;20040;-54
2021/06/07 12:08:37;;;;;;;2.10;0.70;;;;;;;;;;5041427;28;20036;-55
2021/06/07 12:11:04;;;;;;;4.28;0.98;;;;;;;;;;5043189;28;20029;-54
2021/06/07 12:13:30;;;;;;;3.20;0.80;;;;;;;;;;5043511;28;20090;-51
2021/06/07 12:16:02;;;;;;;3.80;0.65;;;;;;;;;;5044616;28;20496;-53
2021/06/07 12:18:35;;;;;;;3.08;0.60;;;;;;;;;;5044592;28;20052;-52
2021/06/07 12:21:05;;;;;;;2.10;0.50;;;;;;;;;;5043974;28;20060;-51
2021/06/07 12:23:34;;;;;;;2.78;0.60;;;;;;;;;;5043144;28;20043;-54
2021/06/07 12:28:39;;;;;;;3.72;0.70;;;;;;;;;;5043120;28;20588;-57
2021/06/07 12:31:05;;;;;;;3.25;0.60;;;;;;;;;;5043963;28;20037;-55
2021/06/07 12:33:32;;;;;;;1.98;0.60;;;;;;;;;;5042730;28;20029;-56
2021/06/07 12:35:59;;;;;;;3.42;0.70;;;;;;;;;;5042440;28;20141;-51
2021/06/07 12:38:25;;;;;;;4.28;1.35;;;;;;;;;;5042623;28;20048;-54
2021/06/07 12:40:52;;;;;;;3.47;0.85;;;;;;;;;;5042500;28;20049;-54
2021/06/07 12:43:20;;;;;;;8.27;0.90;;;;;;;;;;5040723;28;20058;-52
2021/06/07 12:45:47;;;;;;;2.47;0.90;;;;;;;;;;5039820;28;20585;-51
2021/06/07 12:48:16;;;;;;;3.08;0.90;;;;;;;;;;5039651;28;20113;-52
2021/06/07 12:50:52;;;;;;;3.03;0.90;;;;;;;;;;5039056;28;20558;-54
2021/06/07 12:53:19;;;;;;;4.18;1.42;;;;;;;;;;5040570;28;20509;-53
2021/06/07 12:55:45;;;;;;;3.90;0.90;;;;;;;;;;5039435;28;20041;-52
2021/06/07 12:58:14;;;;;;;5.65;1.30;;;;;;;;;;5040935;28;20059;-54
2021/06/07 13:00:41;;;;;;;2.70;0.75;;;;;;;;;;5039275;28;20779;-54
2021/06/07 13:03:25;;;;;;;2.85;0.85;;;;;;;;;;5041142;28;20039;-51
2021/06/07 13:06:00;;;;;;;4.07;0.90;;;;;;;;;;5039347;28;20397;-54
2021/06/07 13:08:27;;;;;;;4.47;0.98;;;;;;;;;;5042980;28;20689;-55
2021/06/07 13:10:57;;;;;;;2.78;0.80;;;;;;;;;;5045062;28;20045;-53
2021/06/07 13:13:34;;;;;;;2.97;0.90;;;;;;;;;;5043894;28;20055;-54
2021/06/07 13:16:05;;;;;;;4.13;1.13;;;;;;;;;;5046112;28;20052;-53
2021/06/07 13:18:32;;;;;;;2.67;0.80;;;;;;;;;;5043139;28;20044;-54
2021/06/07 13:20:59;;;;;;;2.60;0.80;;;;;;;;;;5042124;28;20571;-52
2021/06/07 13:23:41;;;;;;;3.30;0.70;;;;;;;;;;5059567;28;20072;-52
2021/06/07 13:26:17;;;;;;;4.85;0.85;;;;;;;;;;5043813;28;20040;-54
2021/06/07 13:28:43;;;;;;;2.75;0.90;;;;;;;;;;5041197;28;20135;-54
2021/06/07 13:31:08;;;;;;;4.00;0.75;;;;;;;;;;5039997;28;22103;-52
2021/06/07 13:33:39;;;;;;;3.03;0.75;;;;;;;;;;5042389;28;20032;-55
2021/06/07 13:36:05;;;;;;;3.88;1.00;;;;;;;;;;5045747;28;20055;-55
2021/06/07 13:38:35;;;;;;;5.28;1.13;;;;;;;;;;5044642;28;20416;-52
2021/06/07 13:41:08;;;;;;;3.67;1.13;;;;;;;;;;5047039;28;20469;-52
2021/06/07 13:43:34;;;;;;;5.38;1.35;;;;;;;;;;5044311;28;20158;-54
2021/06/07 13:46:01;;;;;;;3.28;1.10;;;;;;;;;;5044467;28;20036;-52
2021/06/07 13:48:32;;;;;;;3.67;1.10;;;;;;;;;;5044320;28;20185;-51
2021/06/07 13:50:59;;;;;;;4.82;1.00;;;;;;;;;;5042492;28;20037;-51
2021/06/07 13:53:34;;;;;;;2.42;0.70;;;;;;;;;;5043706;28;20383;-55
2021/06/07 13:56:01;;;;;;;2.58;0.60;;;;;;;;;;5043298;28;20044;-55
2021/06/07 13:58:40;;;;;;;3.15;0.47;;;;;;;;;;5040063;28;20128;-54
2021/06/07 14:01:07;;;;;;;2.58;0.65;;;;;;;;;;5044584;28;20087;-53
2021/06/07 14:03:33;;;;;;;3.15;0.50;;;;;;;;;;5039769;28;20033;-55
2021/06/07 14:06:00;;;;;;;2.47;0.52;;;;;;;;;;5043884;28;20045;-53
2021/06/07 14:08:30;;;;;;;1.02;0.40;;;;;;;;;;5044602;28;20124;-55
2021/06/07 14:10:58;;;;;;;1.98;0.50;;;;;;;;;;5045579;28;20363;-52
2021/06/07 14:13:24;;;;;;;1.80;0.50;;;;;;;;;;5045214;28;20114;-53
2021/06/07 14:15:49;;;;;;;2.03;0.50;;;;;;;;;;5046573;28;20503;-54
2021/06/07 14:18:16;;;;;;;1.40;0.55;;;;;;;;;;5045774;28;20037;-54
2021/06/07 14:20:46;;;;;;;2.92;0.45;;;;;;;;;;5044962;28;20123;-54
2021/06/07 14:26:01;;;;;;;2.22;0.50;;;;;;;;;;5046732;28;20060;-54
2021/06/07 14:28:27;;;;;;;4.32;0.60;;;;;;;;;;5044891;28;20131;-54
2021/06/07 14:30:52;;;;;;;5.95;0.60;;;;;;;;;;5047190;28;20036;-53
2021/06/07 14:33:18;;;;;;;2.33;0.50;;;;;;;;;;5043569;28;20055;-56
2021/06/07 14:35:44;;;;;;;2.00;0.43;;;;;;;;;;5046488;28;20131;-53
2021/06/07 14:38:11;;;;;;;1.90;0.60;;;;;;;;;;5043174;28;20037;-53
2021/06/07 14:40:38;;;;;;;2.20;0.50;;;;;;;;;;5044418;28;20048;-55
2021/06/07 14:43:04;;;;;;;2.55;0.50;;;;;;;;;;5043570;28;20037;-51
2021/06/07 14:45:30;;;;;;;4.80;0.70;;;;;;;;;;5036121;28;20139;-53
2021/06/07 14:47:56;;;;;;;6.18;0.70;;;;;;;;;;5056851;28;20036;-53
2021/06/07 14:50:22;;;;;;;3.03;0.50;;;;;;;;;;5042343;28;20036;-53